createdAt,value
2023-01-27T00:01:31.614Z,48.95
2023-01-27T00:03:59.684Z,49.18
2023-01-27T00:06:29.727Z,49.15
2023-01-27T00:08:57.635Z,49.19
2023-01-27T00:11:44.378Z,49.52
2023-01-27T00:14:12.346Z,49.08
2023-01-27T00:16:41.773Z,48.71
2023-01-27T00:19:09.737Z,48.57
2023-01-27T00:21:58.062Z,48.43
2023-01-27T00:24:38.276Z,47.78
2023-01-27T00:27:11.169Z,47.04
2023-01-27T00:29:41.064Z,47.33
2023-01-27T00:32:29.100Z,47.12
2023-01-27T00:34:57.582Z,47.69
2023-01-27T00:37:26.848Z,47.80
2023-01-27T00:39:54.873Z,47.82
2023-01-27T00:42:23.294Z,48.19
2023-01-27T00:45:09.739Z,48.14
2023-01-27T00:47:38.134Z,48.33
2023-01-27T00:50:06.755Z,48.68
2023-01-27T00:52:34.971Z,47.99
2023-01-27T00:55:02.910Z,47.80
2023-01-27T00:57:50.038Z,47.81
2023-01-27T01:00:18.189Z,47.33
2023-01-27T01:02:46.484Z,47.83
2023-01-27T01:05:14.716Z,47.57
2023-01-27T01:07:42.971Z,47.81
2023-01-27T01:10:12.160Z,47.87
2023-01-27T01:12:40.525Z,47.85
2023-01-27T01:15:09.003Z,48.10
2023-01-27T01:17:37.235Z,47.66
2023-01-27T01:20:05.552Z,47.83
2023-01-27T01:22:33.856Z,47.20
2023-01-27T01:25:02.355Z,47.04
2023-01-27T01:27:31.030Z,47.77
2023-01-27T01:29:59.000Z,48.45
2023-01-27T01:32:28.414Z,48.47
2023-01-27T01:34:56.434Z,48.19
2023-01-27T01:37:25.696Z,48.64
2023-01-27T01:39:53.612Z,48.29
2023-01-27T01:42:21.904Z,48.52
2023-01-27T01:45:12.288Z,48.74
2023-01-27T01:47:40.544Z,48.07
2023-01-27T01:50:08.834Z,48.76
2023-01-27T01:52:37.362Z,48.42
2023-01-27T01:55:05.555Z,48.51
2023-01-27T01:57:37.868Z,48.46
2023-01-27T02:00:08.076Z,48.32
2023-01-27T02:02:43.686Z,48.56
2023-01-27T02:05:19.655Z,48.75
2023-01-27T02:08:03.244Z,48.91
2023-01-27T02:10:33.588Z,48.64
2023-01-27T02:13:02.590Z,49.10
2023-01-27T02:15:31.811Z,49.07
2023-01-27T02:18:02.018Z,49.53
2023-01-27T02:20:41.547Z,49.02
2023-01-27T02:23:09.735Z,49.44
2023-01-27T02:26:06.882Z,49.02
2023-01-27T02:28:35.307Z,49.33
2023-01-27T02:31:03.428Z,49.00
2023-01-27T02:33:33.042Z,49.04
2023-01-27T02:36:10.007Z,49.33
2023-01-27T02:38:46.495Z,49.51
2023-01-27T02:41:30.029Z,49.04
2023-01-27T02:43:58.638Z,49.81
2023-01-27T02:46:27.030Z,50.05
2023-01-27T02:48:55.416Z,50.04
2023-01-27T02:51:23.989Z,50.53
2023-01-27T02:53:52.447Z,49.86
2023-01-27T02:56:21.625Z,49.95
2023-01-27T02:58:49.915Z,49.81
2023-01-27T03:01:25.568Z,50.74
2023-01-27T03:03:54.877Z,50.74
2023-01-27T03:06:22.757Z,50.73
2023-01-27T03:08:51.134Z,49.76
2023-01-27T03:11:39.294Z,50.05
2023-01-27T03:14:09.252Z,50.38
2023-01-27T03:16:56.161Z,50.49
2023-01-27T03:19:24.514Z,50.32
2023-01-27T03:21:53.942Z,50.63
2023-01-27T03:24:23.406Z,51.10
2023-01-27T03:26:53.535Z,50.29
2023-01-27T03:29:47.264Z,50.79
2023-01-27T03:32:15.417Z,50.73
2023-01-27T03:34:58.134Z,51.11
2023-01-27T03:37:51.445Z,51.18
2023-01-27T03:40:38.494Z,50.35
2023-01-27T03:43:24.765Z,50.67
2023-01-27T03:46:12.806Z,50.90
2023-01-27T03:48:40.778Z,49.91
2023-01-27T03:51:10.564Z,50.66
2023-01-27T03:53:38.775Z,50.13
2023-01-27T03:56:08.295Z,49.93
2023-01-27T03:58:37.916Z,50.18
2023-01-27T04:01:12.705Z,49.44
2023-01-27T04:04:00.157Z,48.51
2023-01-27T04:06:52.343Z,48.48
2023-01-27T04:09:32.012Z,48.83
2023-01-27T04:12:05.575Z,48.14
2023-01-27T04:14:36.015Z,47.38
2023-01-27T04:17:12.874Z,47.92
2023-01-27T04:19:41.205Z,48.08
2023-01-27T04:22:11.935Z,48.12
2023-01-27T04:24:40.214Z,47.74
2023-01-27T04:27:11.394Z,47.59
2023-01-27T04:29:41.439Z,47.00
2023-01-27T04:32:13.208Z,47.45
2023-01-27T04:34:42.890Z,47.33
2023-01-27T04:37:11.373Z,47.31
2023-01-27T04:39:39.304Z,47.87
2023-01-27T04:42:07.565Z,47.01
2023-01-27T04:44:35.504Z,46.79
2023-01-27T04:47:03.825Z,47.44
2023-01-27T04:49:31.782Z,46.91
2023-01-27T04:51:59.983Z,46.76
2023-01-27T04:54:27.833Z,46.61
2023-01-27T04:57:03.960Z,46.85
2023-01-27T04:59:31.956Z,46.86
2023-01-27T05:02:00.306Z,46.80
2023-01-27T05:04:28.344Z,46.82
2023-01-27T05:06:56.720Z,46.95
2023-01-27T05:09:24.793Z,47.40
2023-01-27T05:11:54.269Z,46.89
2023-01-27T05:14:23.870Z,47.24
2023-01-27T05:16:52.352Z,46.92
2023-01-27T05:19:20.366Z,46.59
2023-01-27T05:21:48.708Z,46.92
2023-01-27T05:24:16.754Z,46.75
2023-01-27T05:26:45.168Z,46.06
2023-01-27T05:29:13.259Z,46.11
2023-01-27T05:31:41.643Z,45.66
2023-01-27T05:34:10.068Z,46.43
2023-01-27T05:36:52.860Z,46.88
2023-01-27T05:39:21.226Z,46.35
2023-01-27T05:41:49.427Z,46.32
2023-01-27T05:44:18.744Z,46.67
2023-01-27T05:46:46.653Z,46.49
2023-01-27T05:49:15.967Z,46.36
2023-01-27T05:51:43.995Z,46.56
2023-01-27T05:54:12.256Z,46.35
2023-01-27T05:56:40.923Z,46.21
2023-01-27T05:59:11.258Z,46.07
2023-01-27T06:01:39.922Z,45.42
2023-01-27T06:04:09.608Z,45.91
2023-01-27T06:06:37.605Z,46.06
2023-01-27T06:09:06.464Z,45.69
2023-01-27T06:11:34.522Z,45.60
2023-01-27T06:14:02.874Z,45.77
2023-01-27T06:16:30.975Z,45.44
2023-01-27T06:19:00.042Z,45.65
2023-01-27T06:21:28.125Z,45.01
2023-01-27T06:23:58.411Z,44.92
2023-01-27T06:26:26.729Z,44.38
2023-01-27T06:28:58.133Z,44.84
2023-01-27T06:31:28.631Z,44.42
2023-01-27T06:33:56.986Z,44.00
2023-01-27T06:36:25.275Z,44.08
2023-01-27T06:38:53.373Z,44.11
2023-01-27T06:41:21.829Z,44.47
2023-01-27T06:43:49.845Z,44.30
2023-01-27T06:46:18.224Z,44.43
2023-01-27T06:48:46.235Z,44.53
2023-01-27T06:51:15.920Z,44.60
2023-01-27T06:53:43.920Z,43.70
2023-01-27T06:56:12.282Z,44.01
2023-01-27T06:58:40.987Z,43.83
2023-01-27T07:01:09.276Z,43.60
2023-01-27T07:03:37.256Z,43.40
2023-01-27T07:06:06.940Z,43.54
2023-01-27T07:08:34.954Z,43.42
2023-01-27T07:11:05.188Z,43.80
2023-01-27T07:13:33.342Z,43.71
2023-01-27T07:16:01.793Z,43.37
2023-01-27T07:18:30.081Z,42.77
2023-01-27T07:20:58.509Z,43.37
2023-01-27T07:23:26.452Z,43.62
2023-01-27T07:25:54.808Z,43.65
2023-01-27T07:28:22.819Z,43.04
2023-01-27T07:30:51.212Z,42.86
2023-01-27T07:33:19.265Z,42.79
2023-01-27T07:35:50.751Z,43.27
2023-01-27T07:38:19.022Z,43.39
2023-01-27T07:40:47.349Z,42.72
2023-01-27T07:43:15.397Z,42.57
2023-01-27T07:45:49.131Z,42.30
2023-01-27T07:48:17.101Z,42.85
2023-01-27T07:50:45.529Z,43.41
2023-01-27T07:53:13.731Z,43.13
2023-01-27T07:55:42.226Z,42.92
2023-01-27T07:58:10.355Z,42.62
2023-01-27T08:00:40.161Z,43.11
2023-01-27T08:03:08.286Z,42.96
2023-01-27T08:05:38.593Z,42.61
2023-01-27T08:08:06.766Z,42.50
2023-01-27T08:10:35.036Z,42.85
2023-01-27T08:13:03.057Z,42.98
2023-01-27T08:15:32.188Z,42.02
2023-01-27T08:18:00.284Z,41.56
2023-01-27T08:20:28.924Z,42.19
2023-01-27T08:22:57.180Z,41.61
2023-01-27T08:25:26.013Z,41.72
2023-01-27T08:27:56.589Z,41.68
2023-01-27T08:30:25.444Z,41.58
2023-01-27T08:32:54.395Z,41.27
2023-01-27T08:35:22.698Z,40.77
2023-01-27T08:37:51.898Z,41.08
2023-01-27T08:40:20.842Z,41.05
2023-01-27T08:42:51.230Z,41.10
2023-01-27T08:45:20.577Z,40.98
2023-01-27T08:47:48.495Z,40.28
2023-01-27T08:50:16.963Z,40.65
2023-01-27T08:52:45.357Z,40.14
2023-01-27T08:55:15.673Z,40.76
2023-01-27T08:57:43.903Z,41.19
2023-01-27T09:00:13.819Z,40.69
2023-01-27T09:02:42.159Z,40.17
2023-01-27T09:05:10.533Z,40.75
2023-01-27T09:07:38.483Z,40.66
2023-01-27T09:10:14.635Z,40.70
2023-01-27T09:12:45.144Z,40.42
2023-01-27T09:15:14.568Z,40.95
2023-01-27T09:17:42.819Z,40.10
2023-01-27T09:20:12.471Z,40.10
2023-01-27T09:22:41.901Z,40.84
2023-01-27T09:25:15.979Z,40.28
2023-01-27T09:27:44.694Z,40.63
2023-01-27T09:30:14.766Z,40.67
2023-01-27T09:32:43.172Z,40.28
2023-01-27T09:35:11.902Z,40.64
2023-01-27T09:37:50.229Z,40.58
2023-01-27T09:40:28.867Z,40.16
2023-01-27T09:43:04.804Z,40.54
2023-01-27T09:45:51.550Z,40.85
2023-01-27T09:48:34.303Z,41.02
2023-01-27T09:51:20.295Z,41.39
2023-01-27T09:54:19.695Z,40.68
2023-01-27T09:56:56.652Z,40.59
2023-01-27T09:59:52.277Z,40.72
2023-01-27T10:02:44.795Z,40.44
2023-01-27T10:05:53.092Z,40.44
2023-01-27T10:08:23.924Z,41.00
2023-01-27T10:11:12.722Z,40.60
2023-01-27T10:14:02.372Z,40.45
2023-01-27T10:16:33.266Z,40.67
2023-01-27T10:19:13.248Z,40.18
2023-01-27T10:21:55.101Z,39.43
2023-01-27T10:24:39.566Z,39.47
2023-01-27T10:27:23.295Z,38.99
2023-01-27T10:30:12.940Z,39.06
2023-01-27T10:33:12.848Z,39.85
2023-01-27T10:35:50.795Z,39.21
2023-01-27T10:38:36.316Z,38.86
2023-01-27T10:41:16.673Z,39.92
2023-01-27T10:43:44.571Z,39.62
2023-01-27T10:46:41.614Z,39.36
2023-01-27T10:49:32.614Z,38.64
2023-01-27T10:52:17.282Z,38.93
2023-01-27T10:55:01.062Z,39.04
2023-01-27T10:57:29.111Z,39.05
2023-01-27T11:00:49.213Z,38.37
2023-01-27T11:03:15.178Z,37.70
2023-01-27T11:06:06.421Z,37.55
2023-01-27T11:08:39.912Z,37.75
2023-01-27T11:11:29.314Z,37.95
2023-01-27T11:14:16.522Z,37.65
2023-01-27T11:16:52.091Z,36.84
2023-01-27T11:19:33.154Z,37.01
2023-01-27T11:22:08.908Z,36.81
2023-01-27T11:24:47.466Z,36.61
2023-01-27T11:27:18.172Z,36.54
2023-01-27T11:29:54.296Z,36.02
2023-01-27T11:32:48.882Z,36.63
2023-01-27T11:35:17.426Z,36.60
2023-01-27T11:37:50.784Z,35.32
2023-01-27T11:40:37.982Z,34.07
2023-01-27T11:43:05.970Z,33.83
2023-01-27T11:45:36.672Z,33.55
2023-01-27T11:48:12.556Z,31.75
2023-01-27T11:50:42.587Z,31.30
2023-01-27T11:53:17.614Z,30.74
2023-01-27T11:56:01.030Z,29.61
2023-01-27T11:59:18.135Z,29.97
2023-01-27T12:02:03.231Z,28.95
2023-01-27T12:04:50.129Z,30.00
2023-01-27T12:07:34.465Z,29.84
2023-01-27T12:10:04.064Z,28.68
2023-01-27T12:12:37.476Z,29.92
2023-01-27T12:15:05.884Z,29.67
2023-01-27T12:17:54.596Z,30.81
2023-01-27T12:20:22.473Z,29.33
2023-01-27T12:22:54.594Z,28.67
2023-01-27T12:25:28.230Z,28.83
2023-01-27T12:28:04.228Z,28.52
2023-01-27T12:30:35.101Z,28.37
2023-01-27T12:33:13.513Z,27.85
2023-01-27T12:35:48.302Z,27.63
2023-01-27T12:38:22.461Z,27.72
2023-01-27T12:41:01.265Z,27.53
2023-01-27T12:43:29.702Z,26.76
2023-01-27T12:46:25.968Z,28.13
2023-01-27T12:49:09.827Z,27.25
2023-01-27T12:51:51.417Z,27.61
2023-01-27T12:54:28.550Z,28.43
2023-01-27T12:57:06.030Z,27.63
2023-01-27T12:59:35.854Z,27.79
2023-01-27T13:02:25.424Z,27.26
2023-01-27T13:05:03.830Z,27.10
2023-01-27T13:07:53.650Z,27.16
2023-01-27T13:10:28.064Z,27.66
2023-01-27T13:12:59.530Z,27.49
2023-01-27T13:15:31.401Z,26.07
2023-01-27T13:18:01.446Z,26.06
2023-01-27T13:20:49.999Z,27.35
2023-01-27T13:23:28.126Z,27.90
2023-01-27T13:26:05.495Z,27.05
2023-01-27T13:28:52.099Z,27.69
2023-01-27T13:31:49.248Z,27.71
2023-01-27T13:34:27.343Z,27.05
2023-01-27T13:37:09.607Z,26.68
2023-01-27T13:40:14.933Z,27.68
2023-01-27T13:43:03.080Z,27.46
2023-01-27T13:45:53.564Z,26.70
2023-01-27T13:48:51.313Z,26.71
2023-01-27T13:51:30.442Z,26.27
2023-01-27T13:54:02.437Z,26.31
2023-01-27T13:56:49.843Z,25.93
2023-01-27T13:59:42.023Z,25.89
2023-01-27T14:02:31.242Z,27.19
2023-01-27T14:05:11.448Z,27.79
2023-01-27T14:07:53.936Z,26.79
2023-01-27T14:10:32.653Z,26.52
2023-01-27T14:13:26.892Z,28.05
2023-01-27T14:16:25.456Z,28.98
2023-01-27T14:19:07.392Z,29.28
2023-01-27T14:24:41.525Z,28.59
2023-01-27T14:27:32.258Z,28.61
2023-01-27T14:30:07.898Z,29.83
2023-01-27T14:32:55.887Z,31.06
2023-01-27T14:35:29.382Z,30.11
2023-01-27T14:38:10.102Z,31.03
2023-01-27T14:41:17.264Z,31.82
2023-01-27T14:43:51.986Z,31.78
2023-01-27T14:46:29.590Z,32.05
2023-01-27T14:49:17.035Z,31.93
2023-01-27T14:51:50.993Z,32.12
2023-01-27T14:54:36.103Z,32.48
2023-01-27T14:57:36.168Z,32.82
2023-01-27T15:00:36.106Z,32.75
2023-01-27T15:03:22.134Z,33.09
2023-01-27T15:05:53.024Z,33.06
2023-01-27T15:08:55.194Z,33.60
2023-01-27T15:11:52.153Z,34.09
2023-01-27T15:14:37.967Z,34.54
2023-01-27T15:17:27.901Z,34.76
2023-01-27T15:20:06.647Z,35.19
2023-01-27T15:22:54.891Z,35.29
2023-01-27T15:25:33.464Z,35.24
2023-01-27T15:28:03.192Z,35.85
2023-01-27T15:30:38.264Z,35.90
2023-01-27T15:33:48.263Z,36.50
2023-01-27T15:36:19.848Z,36.77
2023-01-27T15:39:11.365Z,36.60
2023-01-27T15:41:54.545Z,36.84
2023-01-27T15:44:32.902Z,37.39
2023-01-27T15:47:26.743Z,37.27
2023-01-27T15:50:19.345Z,37.52
2023-01-27T15:52:49.464Z,37.69
2023-01-27T15:55:31.785Z,37.94
2023-01-27T15:58:15.139Z,38.20
2023-01-27T16:00:52.698Z,38.49
2023-01-27T16:03:45.096Z,38.83
2023-01-27T16:06:16.483Z,38.85
2023-01-27T16:08:52.618Z,38.83
2023-01-27T16:11:26.759Z,39.19
2023-01-27T16:14:12.897Z,39.47
2023-01-27T16:16:48.540Z,39.86
2023-01-27T16:19:39.220Z,40.21
2023-01-27T16:22:14.559Z,40.40
2023-01-27T16:25:11.764Z,40.51
2023-01-27T16:28:04.544Z,40.26
2023-01-27T16:30:40.255Z,40.16
2023-01-27T16:33:48.647Z,40.26
2023-01-27T16:36:36.702Z,40.37
2023-01-27T16:39:32.135Z,40.68
2023-01-27T16:42:00.453Z,41.04
2023-01-27T16:44:48.895Z,41.40
2023-01-27T16:47:36.797Z,41.74
2023-01-27T16:50:05.658Z,42.07
2023-01-27T16:52:42.203Z,42.57
2023-01-27T16:55:22.565Z,42.10
2023-01-27T16:57:51.895Z,42.26
2023-01-27T17:00:24.164Z,42.82
2023-01-27T17:02:53.953Z,43.05
2023-01-27T17:05:22.989Z,43.03
2023-01-27T17:08:16.714Z,43.22
2023-01-27T17:10:52.784Z,43.99
2023-01-27T17:13:34.572Z,44.56
2023-01-27T17:16:06.512Z,44.32
2023-01-27T17:18:51.755Z,44.23
2023-01-27T17:21:38.567Z,44.65
2023-01-27T17:24:11.638Z,44.94
2023-01-27T17:26:44.354Z,45.14
2023-01-27T17:29:21.419Z,45.73
2023-01-27T17:31:50.259Z,45.58
2023-01-27T17:34:21.173Z,46.17
2023-01-27T17:37:18.268Z,45.83
2023-01-27T17:39:47.762Z,45.79
2023-01-27T17:42:18.717Z,46.22
2023-01-27T17:44:47.905Z,46.29
2023-01-27T17:47:20.508Z,46.58
2023-01-27T17:49:50.854Z,46.35
2023-01-27T17:52:25.039Z,47.04
2023-01-27T17:54:52.819Z,46.61
2023-01-27T17:57:32.891Z,47.04
2023-01-27T18:00:11.766Z,46.70
2023-01-27T18:02:55.419Z,46.73
2023-01-27T18:05:29.219Z,46.93
2023-01-27T18:07:57.542Z,47.45
2023-01-27T18:10:34.149Z,46.99
2023-01-27T18:13:20.381Z,47.33
2023-01-27T18:15:59.510Z,47.12
2023-01-27T18:18:33.660Z,47.10
2023-01-27T18:21:01.461Z,47.42
2023-01-27T18:23:32.765Z,47.48
2023-01-27T18:26:17.111Z,48.03
2023-01-27T18:28:49.074Z,47.82
2023-01-27T18:31:25.430Z,47.68
2023-01-27T18:34:02.448Z,48.91
2023-01-27T18:36:36.410Z,48.96
2023-01-27T18:39:27.536Z,49.51
2023-01-27T18:41:55.886Z,50.18
2023-01-27T18:44:34.624Z,50.10
2023-01-27T18:47:17.942Z,50.17
2023-01-27T18:49:53.608Z,50.15
2023-01-27T18:52:22.149Z,50.28
2023-01-27T18:54:55.641Z,49.90
2023-01-27T18:57:23.579Z,49.10
2023-01-27T18:59:53.041Z,48.79
2023-01-27T19:02:21.198Z,48.64
2023-01-27T19:04:50.994Z,49.15
2023-01-27T19:07:19.763Z,49.04
2023-01-27T19:09:49.242Z,49.27
2023-01-27T19:12:17.209Z,49.85
2023-01-27T19:14:48.183Z,49.75
2023-01-27T19:17:20.167Z,50.44
2023-01-27T19:19:49.896Z,50.13
2023-01-27T19:22:20.174Z,50.30
2023-01-27T19:24:50.696Z,50.77
2023-01-27T19:27:19.617Z,50.94
2023-01-27T19:29:48.409Z,50.43
2023-01-27T19:32:16.440Z,50.60
2023-01-27T19:34:44.812Z,50.25
2023-01-27T19:37:18.971Z,50.67
2023-01-27T19:39:49.203Z,50.76
2023-01-27T19:42:17.303Z,49.66
2023-01-27T19:44:45.835Z,51.52
2023-01-27T19:47:14.044Z,52.06
2023-01-27T19:49:42.509Z,52.75
2023-01-27T19:52:10.510Z,53.84
2023-01-27T19:54:38.692Z,53.73
2023-01-27T19:57:10.353Z,54.15
2023-01-27T19:59:38.634Z,54.89
2023-01-27T20:02:06.541Z,55.35
2023-01-27T20:04:34.777Z,55.20
2023-01-27T20:07:02.758Z,55.49
2023-01-27T20:09:31.045Z,56.04
2023-01-27T20:11:58.971Z,55.57
2023-01-27T20:14:27.329Z,54.79
2023-01-27T20:16:55.355Z,54.97
2023-01-27T20:19:23.865Z,54.29
2023-01-27T20:21:51.965Z,54.83
2023-01-27T20:24:20.674Z,54.77
2023-01-27T20:26:49.837Z,54.16
2023-01-27T20:29:19.948Z,53.69
2023-01-27T20:31:50.504Z,53.71
2023-01-27T20:34:19.026Z,54.37
2023-01-27T20:36:47.765Z,54.41
2023-01-27T20:39:16.224Z,54.42
2023-01-27T20:41:44.956Z,54.23
2023-01-27T20:44:14.032Z,53.81
2023-01-27T20:46:42.943Z,53.64
2023-01-27T20:49:12.408Z,54.79
2023-01-27T20:51:41.354Z,54.64
2023-01-27T20:54:13.213Z,55.81
2023-01-27T20:56:45.043Z,55.73
2023-01-27T20:59:15.454Z,56.20
2023-01-27T21:01:45.464Z,56.27
2023-01-27T21:04:13.846Z,56.10
2023-01-27T21:06:41.859Z,56.69
2023-01-27T21:09:10.194Z,56.17
2023-01-27T21:11:38.179Z,55.51
2023-01-27T21:14:06.535Z,56.22
2023-01-27T21:16:35.320Z,56.71
2023-01-27T21:19:03.852Z,57.14
2023-01-27T21:21:31.855Z,57.39
2023-01-27T21:24:00.584Z,56.97
2023-01-27T21:26:29.347Z,56.52
2023-01-27T21:28:57.652Z,55.93
2023-01-27T21:31:30.530Z,55.45
2023-01-27T21:34:01.923Z,55.43
2023-01-27T21:36:29.941Z,55.21
2023-01-27T21:38:58.454Z,55.72
2023-01-27T21:41:44.920Z,56.30
2023-01-27T21:44:39.008Z,56.11
2023-01-27T21:47:09.750Z,55.92
2023-01-27T21:49:59.909Z,56.43
2023-01-27T21:52:45.978Z,56.30
2023-01-27T21:55:20.399Z,56.49
2023-01-27T21:57:51.082Z,56.01
2023-01-27T22:00:22.954Z,56.71
2023-01-27T22:02:59.012Z,56.74
2023-01-27T22:05:28.968Z,57.40
2023-01-27T22:07:57.291Z,57.56
2023-01-27T22:10:27.919Z,57.53
2023-01-27T22:13:01.645Z,56.68
2023-01-27T22:15:30.818Z,57.21
2023-01-27T22:17:59.415Z,57.40
2023-01-27T22:20:28.446Z,56.90
2023-01-27T22:22:56.560Z,56.65
2023-01-27T22:25:27.561Z,57.24
2023-01-27T22:27:56.366Z,57.03
2023-01-27T22:30:24.766Z,56.45
2023-01-27T22:32:52.721Z,56.80
2023-01-27T22:35:22.333Z,56.83
2023-01-27T22:37:50.413Z,56.90
2023-01-27T22:40:19.215Z,56.74
2023-01-27T22:42:49.044Z,57.23
2023-01-27T22:45:18.234Z,56.65
2023-01-27T22:47:46.629Z,56.12
2023-01-27T22:50:15.199Z,56.74
2023-01-27T22:52:43.059Z,56.98
2023-01-27T22:55:13.318Z,56.37
2023-01-27T22:57:41.566Z,56.42
2023-01-27T23:00:11.479Z,55.90
2023-01-27T23:02:39.643Z,54.60
2023-01-27T23:05:08.404Z,54.77
2023-01-27T23:07:36.334Z,55.88
2023-01-27T23:10:05.075Z,55.79
2023-01-27T23:12:33.129Z,55.37
2023-01-27T23:15:02.830Z,55.80
2023-01-27T23:17:30.897Z,55.22
2023-01-27T23:19:59.166Z,55.56
2023-01-27T23:22:27.273Z,55.09
2023-01-27T23:24:55.498Z,54.45
2023-01-27T23:27:23.520Z,54.81
2023-01-27T23:29:51.818Z,55.71
2023-01-27T23:32:19.731Z,55.73
2023-01-27T23:34:48.484Z,55.69
2023-01-27T23:37:17.014Z,56.15
2023-01-27T23:39:48.883Z,56.06
2023-01-27T23:42:18.301Z,56.60
2023-01-27T23:44:47.457Z,55.99
2023-01-27T23:47:15.972Z,55.46
2023-01-27T23:49:44.224Z,55.46
2023-01-27T23:52:12.362Z,55.60
2023-01-27T23:54:41.730Z,55.58
2023-01-27T23:57:09.731Z,55.88
2023-01-27T23:59:38.089Z,55.30
